createdAt,value
2018-10-21T00:01:50.818Z,17.60
2018-10-21T00:04:19.679Z,16.83
2018-10-21T00:06:48.538Z,15.40
2018-10-21T00:09:17.707Z,14.00
2018-10-21T00:11:46.419Z,13.40
2018-10-21T00:14:15.398Z,12.50
2018-10-21T00:16:44.555Z,11.93
2018-10-21T00:19:13.608Z,12.27
2018-10-21T00:21:42.775Z,13.45
2018-10-21T00:24:11.777Z,13.60
2018-10-21T00:26:40.792Z,13.13
2018-10-21T00:29:09.756Z,13.13
2018-10-21T00:31:38.982Z,13.13
2018-10-21T00:34:07.948Z,15.57
2018-10-21T00:36:36.966Z,15.70
2018-10-21T00:39:09.791Z,14.47
2018-10-21T00:41:38.831Z,13.00
2018-10-21T00:44:07.670Z,14.37
2018-10-21T00:46:36.594Z,14.73
2018-10-21T00:49:05.692Z,14.73
2018-10-21T00:51:34.510Z,14.28
2018-10-21T00:54:03.580Z,14.45
2018-10-21T00:56:32.581Z,12.20
2018-10-21T00:59:01.420Z,13.83
2018-10-21T01:01:30.362Z,16.32
2018-10-21T01:03:59.372Z,12.37
2018-10-21T01:06:28.252Z,12.27
2018-10-21T01:08:57.272Z,12.53
2018-10-21T01:11:26.769Z,15.27
2018-10-21T01:13:55.620Z,13.03
2018-10-21T01:16:24.713Z,13.47
2018-10-21T01:18:53.609Z,15.17
2018-10-21T01:21:22.512Z,13.87
2018-10-21T01:23:51.531Z,14.77
2018-10-21T01:26:20.485Z,15.10
2018-10-21T01:28:49.387Z,16.40
2018-10-21T01:31:18.608Z,13.70
2018-10-21T01:33:47.473Z,13.43
2018-10-21T01:36:16.432Z,14.10
2018-10-21T01:38:45.356Z,13.03
2018-10-21T01:41:14.203Z,15.10
2018-10-21T01:43:43.179Z,13.85
2018-10-21T01:46:12.137Z,15.37
2018-10-21T01:48:41.017Z,11.75
2018-10-21T01:51:09.940Z,15.48
2018-10-21T01:53:39.281Z,15.27
2018-10-21T01:56:08.124Z,14.40
2018-10-21T01:58:37.020Z,15.43
2018-10-21T02:01:06.193Z,12.40
2018-10-21T02:03:35.300Z,17.87
2018-10-21T02:06:04.183Z,16.93
2018-10-21T02:08:33.184Z,14.63
2018-10-21T02:11:02.902Z,17.73
2018-10-21T02:13:31.772Z,17.07
2018-10-21T02:16:00.698Z,15.83
2018-10-21T02:18:30.753Z,12.33
2018-10-21T02:21:01.323Z,13.60
2018-10-21T02:23:30.559Z,14.90
2018-10-21T02:25:59.502Z,13.05
2018-10-21T02:28:28.767Z,14.80
2018-10-21T02:30:57.732Z,12.37
2018-10-21T02:33:26.912Z,14.13
2018-10-21T02:35:55.823Z,14.13
2018-10-21T02:38:24.710Z,13.10
2018-10-21T02:41:34.129Z,13.20
2018-10-21T02:44:03.733Z,14.73
2018-10-21T02:46:32.976Z,15.27
2018-10-21T02:49:02.570Z,13.80
2018-10-21T02:51:31.433Z,12.27
2018-10-21T02:54:00.517Z,12.82
2018-10-21T02:56:29.394Z,16.70
2018-10-21T02:58:58.364Z,13.83
2018-10-21T03:01:27.281Z,12.20
2018-10-21T03:03:56.215Z,15.50
2018-10-21T03:06:25.109Z,14.53
2018-10-21T03:08:54.059Z,17.93
2018-10-21T03:11:23.047Z,17.03
2018-10-21T03:13:51.904Z,14.70
2018-10-21T03:16:20.828Z,15.67
2018-10-21T03:18:49.818Z,14.57
2018-10-21T03:21:18.788Z,14.60
2018-10-21T03:23:47.719Z,14.23
2018-10-21T03:26:16.611Z,15.90
2018-10-21T03:28:45.411Z,14.80
2018-10-21T03:31:14.213Z,13.17
2018-10-21T03:33:44.011Z,14.40
2018-10-21T03:36:12.871Z,14.17
2018-10-21T03:38:41.703Z,11.90
2018-10-21T03:41:10.881Z,10.72
2018-10-21T03:43:39.796Z,12.40
2018-10-21T03:46:08.795Z,12.85
2018-10-21T03:48:37.704Z,12.33
2018-10-21T03:51:06.563Z,12.10
2018-10-21T03:53:35.449Z,15.05
2018-10-21T03:56:04.371Z,13.13
2018-10-21T03:58:33.266Z,14.97
2018-10-21T04:01:02.235Z,10.87
2018-10-21T04:03:31.216Z,13.43
2018-10-21T04:06:00.790Z,11.90
2018-10-21T04:08:30.709Z,14.90
2018-10-21T04:15:53.687Z,13.85
2018-10-21T04:18:22.618Z,13.13
2018-10-21T04:20:51.600Z,11.47
2018-10-21T04:23:20.557Z,12.93
2018-10-21T04:25:49.364Z,15.67
2018-10-21T04:28:18.404Z,13.32
2018-10-21T04:30:48.156Z,13.63
2018-10-21T04:33:18.754Z,16.70
2018-10-21T04:35:47.645Z,14.73
2018-10-21T04:38:31.939Z,13.53
2018-10-21T04:41:00.825Z,16.67
2018-10-21T04:43:29.717Z,14.00
2018-10-21T04:45:58.733Z,16.97
2018-10-21T04:48:27.636Z,14.17
2018-10-21T04:50:56.481Z,16.03
2018-10-21T04:53:25.371Z,15.77
2018-10-21T04:55:54.301Z,13.60
2018-10-21T04:58:23.132Z,14.20
2018-10-21T05:00:52.144Z,17.17
2018-10-21T05:03:21.036Z,13.63
2018-10-21T05:05:49.929Z,16.00
2018-10-21T05:08:18.926Z,18.05
2018-10-21T05:10:47.811Z,19.83
2018-10-21T05:13:16.709Z,15.00
2018-10-21T05:15:45.634Z,15.13
2018-10-21T05:18:14.533Z,16.15
2018-10-21T05:20:43.458Z,16.10
2018-10-21T05:23:13.734Z,20.17
2018-10-21T05:25:42.924Z,17.67
2018-10-21T05:28:11.936Z,17.17
2018-10-21T05:30:41.315Z,16.32
2018-10-21T05:33:10.313Z,17.35
2018-10-21T05:35:39.225Z,16.70
2018-10-21T05:38:08.326Z,18.20
2018-10-21T05:40:37.291Z,16.73
2018-10-21T05:43:06.321Z,18.80
2018-10-21T05:45:35.321Z,20.50
2018-10-21T05:48:04.199Z,17.17
2018-10-21T05:50:33.004Z,20.23
2018-10-21T05:53:02.061Z,18.53
2018-10-21T05:55:34.190Z,16.58
2018-10-21T05:58:03.207Z,18.33
2018-10-21T06:00:32.001Z,18.67
2018-10-21T06:03:00.993Z,22.82
2018-10-21T06:05:37.478Z,17.77
2018-10-21T06:08:06.883Z,17.07
2018-10-21T06:10:35.904Z,19.27
2018-10-21T06:13:04.753Z,18.87
2018-10-21T06:15:33.537Z,21.53
2018-10-21T06:18:03.029Z,22.20
2018-10-21T06:20:34.298Z,21.20
2018-10-21T06:23:03.077Z,21.57
2018-10-21T06:25:32.012Z,23.92
2018-10-21T06:28:01.065Z,19.17
2018-10-21T06:30:30.819Z,21.73
2018-10-21T06:32:59.613Z,19.33
2018-10-21T06:35:28.398Z,20.33
2018-10-21T06:37:57.188Z,20.17
2018-10-21T06:40:25.965Z,21.20
2018-10-21T06:42:55.090Z,22.47
2018-10-21T06:45:24.099Z,18.93
2018-10-21T06:47:52.767Z,21.83
2018-10-21T06:50:21.861Z,22.80
2018-10-21T06:52:50.573Z,22.70
2018-10-21T06:55:19.440Z,20.57
2018-10-21T06:57:48.524Z,23.70
2018-10-21T07:00:17.248Z,22.00
2018-10-21T07:02:46.058Z,22.23
2018-10-21T07:05:25.933Z,22.70
2018-10-21T07:07:54.768Z,22.83
2018-10-21T07:10:23.579Z,21.97
2018-10-21T07:12:52.600Z,24.83
2018-10-21T07:15:21.669Z,24.63
2018-10-21T07:17:50.362Z,23.73
2018-10-21T07:20:19.341Z,21.60
2018-10-21T07:22:48.115Z,23.07
2018-10-21T07:25:16.906Z,22.40
2018-10-21T07:27:46.003Z,23.83
2018-10-21T07:30:14.924Z,22.73
2018-10-21T07:32:44.037Z,28.03
2018-10-21T07:35:14.124Z,29.12
2018-10-21T07:37:43.957Z,26.15
2018-10-21T07:40:13.609Z,30.03
2018-10-21T07:42:42.881Z,30.47
2018-10-21T07:45:11.977Z,30.07
2018-10-21T07:47:40.859Z,29.60
2018-10-21T07:50:09.862Z,27.98
2018-10-21T07:52:38.702Z,31.03
2018-10-21T07:55:10.961Z,30.47
2018-10-21T07:57:39.792Z,30.10
2018-10-21T08:00:08.647Z,27.52
2018-10-21T08:02:37.583Z,29.92
2018-10-21T08:05:07.338Z,31.37
2018-10-21T08:07:47.343Z,31.93
2018-10-21T08:10:16.183Z,31.10
2018-10-21T08:12:46.056Z,30.52
2018-10-21T08:15:15.269Z,30.17
2018-10-21T08:17:48.082Z,30.57
2018-10-21T08:20:17.030Z,30.63
2018-10-21T08:22:45.950Z,33.03
2018-10-21T08:25:15.049Z,30.67
2018-10-21T08:27:43.932Z,32.05
2018-10-21T08:30:13.620Z,30.70
2018-10-21T08:32:42.483Z,31.35
2018-10-21T08:35:11.939Z,34.10
2018-10-21T08:37:40.814Z,35.63
2018-10-21T08:40:09.777Z,38.20
2018-10-21T08:42:38.885Z,38.07
2018-10-21T08:45:07.756Z,35.10
2018-10-21T08:47:36.507Z,37.70
2018-10-21T08:50:05.936Z,35.98
2018-10-21T08:52:34.627Z,35.97
2018-10-21T08:55:03.711Z,38.57
2018-10-21T08:57:32.667Z,35.43
2018-10-21T09:00:01.625Z,36.93
2018-10-21T09:02:31.365Z,36.03
2018-10-21T09:05:01.425Z,37.33
2018-10-21T09:07:31.296Z,43.23
2018-10-21T09:10:01.124Z,40.23
2018-10-21T09:12:30.274Z,38.73
2018-10-21T09:14:59.728Z,43.45
2018-10-21T09:17:28.572Z,40.03
2018-10-21T09:19:58.252Z,41.97
2018-10-21T09:22:27.130Z,40.30
2018-10-21T09:24:56.701Z,40.47
2018-10-21T09:27:25.706Z,43.03
2018-10-21T09:29:54.464Z,40.30
2018-10-21T09:32:23.629Z,39.67
2018-10-21T09:34:52.387Z,42.33
2018-10-21T09:37:21.162Z,38.30
2018-10-21T09:39:51.636Z,43.10
2018-10-21T09:42:20.804Z,42.80
2018-10-21T09:44:50.031Z,40.80
2018-10-21T09:47:22.258Z,43.17
2018-10-21T09:49:51.322Z,42.37
2018-10-21T09:52:20.244Z,39.53
2018-10-21T09:54:57.663Z,38.97
2018-10-21T09:57:26.562Z,53.50
2018-10-21T09:59:55.428Z,45.60
2018-10-21T10:02:29.647Z,39.90
2018-10-21T10:04:58.796Z,43.37
2018-10-21T10:07:27.608Z,46.70
2018-10-21T10:09:56.654Z,43.03
2018-10-21T10:12:25.454Z,41.87
2018-10-21T10:14:54.314Z,37.13
2018-10-21T10:17:23.477Z,44.27
2018-10-21T10:19:52.839Z,41.50
2018-10-21T10:22:25.171Z,39.93
2018-10-21T10:24:59.848Z,38.47
2018-10-21T10:27:33.322Z,37.73
2018-10-21T10:30:03.087Z,39.43
2018-10-21T10:32:32.587Z,40.73
2018-10-21T10:35:02.349Z,38.47
2018-10-21T10:37:31.298Z,38.07
2018-10-21T10:40:00.326Z,36.63
2018-10-21T10:42:29.227Z,40.93
2018-10-21T10:44:59.340Z,41.23
2018-10-21T10:47:29.351Z,35.00
2018-10-21T10:49:59.036Z,39.87
2018-10-21T10:52:31.092Z,38.70
2018-10-21T10:55:01.234Z,35.73
2018-10-21T10:57:30.253Z,38.80
2018-10-21T10:59:59.596Z,39.70
2018-10-21T11:02:28.786Z,40.45
2018-10-21T11:04:58.018Z,37.53
2018-10-21T11:07:26.931Z,36.10
2018-10-21T11:09:55.684Z,37.83
2018-10-21T11:12:24.566Z,39.27
2018-10-21T11:14:53.891Z,36.73
2018-10-21T11:17:22.701Z,37.43
2018-10-21T11:19:51.657Z,37.87
2018-10-21T11:22:20.911Z,38.50
2018-10-21T11:24:50.310Z,33.97
2018-10-21T11:27:19.328Z,36.97
2018-10-21T11:29:49.391Z,38.43
2018-10-21T11:32:18.419Z,39.13
2018-10-21T11:34:47.311Z,33.25
2018-10-21T11:37:16.369Z,35.73
2018-10-21T11:39:51.195Z,39.98
2018-10-21T11:42:22.577Z,33.88
2018-10-21T11:44:51.638Z,35.85
2018-10-21T11:47:20.602Z,33.40
2018-10-21T11:49:49.677Z,36.60
2018-10-21T11:52:25.422Z,36.60
2018-10-21T11:54:54.612Z,33.03
2018-10-21T11:57:24.197Z,41.37
2018-10-21T12:00:11.906Z,36.47
2018-10-21T12:02:40.933Z,38.87
2018-10-21T12:05:10.040Z,36.08
2018-10-21T12:07:45.497Z,37.47
2018-10-21T12:10:14.492Z,35.53
2018-10-21T12:12:44.167Z,34.37
2018-10-21T12:15:16.221Z,35.43
2018-10-21T12:17:45.313Z,37.38
2018-10-21T12:20:14.798Z,34.50
2018-10-21T12:22:43.747Z,34.92
2018-10-21T12:25:13.522Z,35.88
2018-10-21T12:27:42.263Z,32.03
2018-10-21T12:30:18.301Z,30.23
2018-10-21T12:32:47.236Z,29.65
2018-10-21T12:35:16.610Z,28.75
2018-10-21T12:37:45.628Z,28.73
2018-10-21T12:40:21.148Z,27.57
2018-10-21T12:42:50.482Z,26.00
2018-10-21T12:45:20.519Z,24.65
2018-10-21T12:47:49.797Z,25.93
2018-10-21T12:50:19.411Z,25.63
2018-10-21T12:52:48.574Z,26.12
2018-10-21T12:55:27.567Z,23.00
2018-10-21T12:57:56.391Z,23.70
2018-10-21T13:00:25.382Z,24.83
2018-10-21T13:02:54.232Z,25.47
2018-10-21T13:05:24.203Z,24.57
2018-10-21T13:07:53.444Z,24.17
2018-10-21T13:10:22.520Z,23.77
2018-10-21T13:13:02.000Z,24.80
2018-10-21T13:15:31.654Z,24.77
2018-10-21T13:18:02.081Z,24.00
2018-10-21T13:20:33.202Z,22.74
2018-10-21T13:23:06.253Z,22.77
2018-10-21T13:25:35.274Z,23.73
2018-10-21T13:28:42.128Z,25.55
2018-10-21T13:31:11.214Z,25.10
2018-10-21T13:33:40.687Z,22.65
2018-10-21T13:36:10.882Z,24.40
2018-10-21T13:38:40.004Z,20.57
2018-10-21T13:41:08.860Z,21.55
2018-10-21T13:43:38.466Z,23.83
2018-10-21T13:46:07.388Z,22.60
2018-10-21T13:48:36.078Z,24.27
2018-10-21T13:51:05.686Z,23.83
2018-10-21T13:53:34.959Z,21.27
2018-10-21T13:56:07.470Z,19.10
2018-10-21T13:58:36.456Z,18.75
2018-10-21T14:01:05.444Z,17.17
2018-10-21T14:03:34.206Z,17.73
2018-10-21T14:06:03.656Z,20.37
2018-10-21T14:08:33.503Z,21.73
2018-10-21T14:11:02.535Z,19.67
2018-10-21T14:13:32.870Z,19.00
2018-10-21T14:16:02.263Z,19.97
2018-10-21T14:18:31.989Z,22.37
2018-10-21T14:21:06.471Z,21.87
2018-10-21T14:23:35.350Z,20.50
2018-10-21T14:26:05.071Z,20.83
2018-10-21T14:28:34.952Z,21.30
2018-10-21T14:31:04.084Z,20.00
2018-10-21T14:33:34.071Z,18.97
2018-10-21T14:36:03.066Z,17.98
2018-10-21T14:38:32.421Z,17.60
2018-10-21T14:41:03.863Z,18.43
2018-10-21T14:43:32.611Z,17.33
2018-10-21T14:46:02.308Z,17.55
2018-10-21T14:53:24.997Z,18.32
2018-10-21T14:55:53.981Z,18.87
2018-10-21T14:58:22.767Z,18.03
2018-10-21T15:00:51.627Z,16.90
2018-10-21T15:03:20.487Z,17.77
2018-10-21T15:05:49.287Z,15.30
2018-10-21T15:08:19.248Z,15.87
2018-10-21T15:10:49.263Z,15.68
2018-10-21T15:13:18.371Z,17.00
2018-10-21T15:15:47.552Z,15.70
2018-10-21T15:18:16.738Z,15.47
2018-10-21T15:20:46.921Z,14.20
2018-10-21T15:23:17.801Z,14.73
2018-10-21T15:25:46.786Z,14.18
2018-10-21T15:28:15.886Z,14.57
2018-10-21T15:30:44.994Z,14.43
2018-10-21T15:33:14.064Z,14.53
2018-10-21T15:35:43.395Z,13.80
2018-10-21T15:38:13.756Z,20.53
2018-10-21T15:40:43.707Z,16.10
2018-10-21T15:43:13.327Z,14.33
2018-10-21T15:45:44.309Z,13.13
2018-10-21T15:48:14.065Z,14.90
2018-10-21T15:50:43.842Z,13.32
2018-10-21T15:53:13.289Z,13.22
2018-10-21T15:55:42.284Z,12.53
2018-10-21T15:58:11.132Z,15.78
2018-10-21T16:00:40.398Z,14.07
2018-10-21T16:03:09.954Z,13.35
2018-10-21T16:05:39.846Z,16.10
2018-10-21T16:08:09.300Z,15.40
2018-10-21T16:10:38.216Z,14.83
2018-10-21T16:13:08.343Z,14.65
2018-10-21T16:15:38.149Z,18.12
2018-10-21T16:18:07.042Z,18.80
2018-10-21T16:20:36.952Z,17.83
2018-10-21T16:23:06.215Z,18.97
2018-10-21T16:25:35.252Z,19.37
2018-10-21T16:28:05.142Z,18.87
2018-10-21T16:30:35.429Z,18.33
2018-10-21T16:33:05.063Z,19.15
2018-10-21T16:35:33.907Z,21.00
2018-10-21T16:38:04.369Z,20.25
2018-10-21T16:40:33.290Z,21.37
2018-10-21T16:43:03.547Z,21.33
2018-10-21T16:45:33.126Z,25.27
2018-10-21T16:48:03.307Z,21.23
2018-10-21T16:50:37.736Z,20.23
2018-10-21T16:53:02.792Z,22.60
2018-10-21T16:55:32.430Z,21.37
2018-10-21T16:58:02.878Z,23.40
2018-10-21T17:00:33.149Z,23.77
2018-10-21T17:03:03.443Z,25.72
2018-10-21T17:05:32.493Z,22.27
2018-10-21T17:08:02.320Z,23.17
2018-10-21T17:10:31.504Z,25.25
2018-10-21T17:13:00.007Z,24.90
2018-10-21T17:15:28.878Z,23.67
2018-10-21T17:17:57.826Z,23.63
2018-10-21T17:20:26.560Z,28.50
2018-10-21T17:22:55.399Z,24.53
2018-10-21T17:25:24.682Z,25.60
2018-10-21T17:27:53.523Z,27.27
2018-10-21T17:30:22.409Z,24.63
2018-10-21T17:32:51.304Z,25.25
2018-10-21T17:35:21.247Z,21.87
2018-10-21T17:37:50.595Z,24.60
2018-10-21T17:40:27.922Z,24.40
2018-10-21T17:42:58.597Z,22.80
2018-10-21T17:45:28.499Z,27.47
2018-10-21T17:47:59.614Z,25.33
2018-10-21T17:50:28.537Z,24.07
2018-10-21T17:52:57.494Z,24.63
2018-10-21T17:55:54.164Z,23.87
2018-10-21T17:58:24.790Z,23.87
2018-10-21T18:00:53.631Z,21.77
2018-10-21T18:03:22.502Z,23.10
2018-10-21T18:05:51.339Z,19.50
2018-10-21T18:08:20.223Z,21.70
2018-10-21T18:10:49.045Z,20.27
2018-10-21T18:13:18.163Z,20.07
2018-10-21T18:15:46.864Z,18.73
2018-10-21T18:18:15.699Z,19.23
2018-10-21T18:20:44.570Z,19.40
2018-10-21T18:23:13.577Z,18.27
2018-10-21T18:25:42.469Z,20.60
2018-10-21T18:28:11.450Z,20.17
2018-10-21T18:30:40.350Z,18.80
2018-10-21T18:33:10.344Z,19.10
2018-10-21T18:35:39.485Z,19.60
2018-10-21T18:38:09.498Z,17.05
2018-10-21T18:40:39.282Z,21.00
2018-10-21T18:43:09.366Z,17.57
2018-10-21T18:45:39.139Z,17.13
2018-10-21T18:48:08.750Z,16.95
2018-10-21T18:50:37.739Z,18.50
2018-10-21T18:53:06.526Z,15.73
2018-10-21T18:55:35.315Z,16.03
2018-10-21T18:58:04.135Z,14.93
2018-10-21T19:00:35.910Z,17.00
2018-10-21T19:03:06.030Z,14.00
2018-10-21T19:05:34.878Z,14.27
2018-10-21T19:08:03.581Z,14.13
2018-10-21T19:10:32.508Z,15.97
2018-10-21T19:13:02.785Z,15.00
2018-10-21T19:15:32.492Z,16.00
2018-10-21T19:18:01.675Z,12.23
2018-10-21T19:20:30.485Z,14.07
2018-10-21T19:23:00.329Z,14.20
2018-10-21T19:25:31.298Z,12.13
2018-10-21T19:28:00.306Z,12.30
2018-10-21T19:30:29.374Z,15.27
2018-10-21T19:32:58.422Z,12.63
2018-10-21T19:35:27.318Z,13.40
2018-10-21T19:37:56.593Z,13.43
2018-10-21T19:40:26.455Z,13.30
2018-10-21T19:42:55.241Z,13.57
2018-10-21T19:45:24.284Z,14.93
2018-10-21T19:47:54.127Z,14.17
2018-10-21T19:50:23.090Z,12.30
2018-10-21T19:52:51.943Z,12.67
2018-10-21T19:55:21.158Z,12.60
2018-10-21T19:57:50.114Z,11.87
2018-10-21T20:00:18.899Z,12.97
2018-10-21T20:02:47.991Z,11.53
2018-10-21T20:05:16.885Z,10.00
2018-10-21T20:07:45.754Z,12.45
2018-10-21T20:10:15.751Z,14.27
2018-10-21T20:12:44.623Z,13.48
2018-10-21T20:15:14.106Z,16.00
2018-10-21T20:17:43.679Z,13.40
2018-10-21T20:20:13.802Z,15.10
2018-10-21T20:22:42.687Z,14.15
2018-10-21T20:25:12.176Z,13.38
2018-10-21T20:27:41.235Z,13.20
2018-10-21T20:30:11.424Z,12.37
2018-10-21T20:32:40.378Z,14.00
2018-10-21T20:35:10.677Z,13.20
2018-10-21T20:37:39.685Z,13.53
2018-10-21T20:40:09.502Z,15.77
2018-10-21T20:42:38.526Z,12.90
2018-10-21T20:45:10.703Z,12.60
2018-10-21T20:47:40.505Z,13.37
2018-10-21T20:50:09.459Z,13.63
2018-10-21T20:52:38.615Z,12.37
2018-10-21T20:55:07.658Z,12.30
2018-10-21T20:57:36.684Z,14.17
2018-10-21T21:00:05.717Z,18.77
2018-10-21T21:02:34.651Z,11.80
2018-10-21T21:05:06.437Z,13.67
2018-10-21T21:07:35.331Z,13.43
2018-10-21T21:10:04.245Z,15.03
2018-10-21T21:12:33.217Z,14.53
2018-10-21T21:15:04.031Z,14.93
2018-10-21T21:17:33.984Z,14.73
2018-10-21T21:20:02.903Z,14.57
2018-10-21T21:22:32.898Z,13.77
2018-10-21T21:25:02.897Z,14.90
2018-10-21T21:32:30.609Z,17.12
2018-10-21T21:34:59.541Z,17.57
2018-10-21T21:37:28.820Z,17.37
2018-10-21T21:39:57.795Z,19.17
2018-10-21T21:42:26.657Z,19.03
2018-10-21T21:44:55.418Z,18.70
2018-10-21T21:47:25.237Z,22.03
2018-10-21T21:49:54.115Z,18.33
2018-10-21T21:52:23.165Z,18.60
2018-10-21T21:54:52.369Z,20.00
2018-10-21T21:57:21.143Z,18.87
2018-10-21T21:59:50.033Z,20.20
2018-10-21T22:02:20.111Z,19.00
2018-10-21T22:04:50.071Z,21.97
2018-10-21T22:07:18.978Z,23.80
2018-10-21T22:09:47.934Z,21.00
2018-10-21T22:12:16.878Z,42.35
2018-10-21T22:14:45.774Z,23.60
2018-10-21T22:17:14.773Z,21.93
2018-10-21T22:19:43.666Z,18.23
2018-10-21T22:22:12.611Z,20.43
2018-10-21T22:24:45.729Z,21.63
2018-10-21T22:27:14.659Z,23.37
2018-10-21T22:29:43.630Z,22.32
2018-10-21T22:32:12.825Z,20.65
2018-10-21T22:34:41.726Z,22.07
2018-10-21T22:37:10.573Z,22.35
2018-10-21T22:39:39.761Z,21.80
2018-10-21T22:42:08.763Z,23.73
2018-10-21T22:44:37.603Z,21.87
2018-10-21T22:47:06.439Z,25.07
2018-10-21T22:49:35.325Z,23.30
2018-10-21T22:52:04.085Z,20.73
2018-10-21T22:54:33.395Z,20.30
2018-10-21T22:57:03.159Z,22.37
2018-10-21T22:59:33.089Z,22.33
2018-10-21T23:02:01.979Z,21.60
2018-10-21T23:04:30.718Z,22.20
2018-10-21T23:07:03.626Z,23.93
2018-10-21T23:09:33.025Z,23.03
2018-10-21T23:12:01.932Z,22.63
2018-10-21T23:14:40.466Z,26.87
2018-10-21T23:17:09.325Z,21.73
2018-10-21T23:19:48.099Z,23.53
2018-10-21T23:22:17.118Z,23.67
2018-10-21T23:24:46.505Z,22.43
2018-10-21T23:27:15.474Z,24.32
2018-10-21T23:29:44.834Z,24.80
2018-10-21T23:32:13.697Z,21.87
2018-10-21T23:34:42.664Z,21.53
2018-10-21T23:37:11.433Z,21.20
2018-10-21T23:39:40.200Z,20.67
2018-10-21T23:42:09.190Z,21.17
2018-10-21T23:44:37.902Z,21.88
2018-10-21T23:47:06.673Z,21.67
2018-10-21T23:49:35.867Z,25.70
2018-10-21T23:52:05.088Z,21.87
2018-10-21T23:54:33.949Z,23.60
2018-10-21T23:57:05.705Z,20.80
2018-10-21T23:59:35.137Z,24.63
